createdAt,value
2018-12-15T00:00:04.816Z,1.10
2018-12-15T00:02:32.324Z,1.10
2018-12-15T00:04:59.856Z,1.10
2018-12-15T00:07:27.360Z,1.10
2018-12-15T00:09:54.960Z,1.10
2018-12-15T00:12:22.471Z,1.10
2018-12-15T00:14:50.001Z,1.10
2018-12-15T00:17:17.504Z,1.10
2018-12-15T00:19:45.036Z,1.10
2018-12-15T00:22:12.530Z,1.10
2018-12-15T00:24:40.059Z,1.10
2018-12-15T00:27:07.555Z,1.10
2018-12-15T00:29:35.081Z,1.10
2018-12-15T00:32:02.579Z,1.10
2018-12-15T00:34:30.109Z,1.10
2018-12-15T00:36:57.615Z,1.10
2018-12-15T00:39:25.168Z,1.10
2018-12-15T00:41:52.774Z,1.20
2018-12-15T00:44:20.279Z,1.20
2018-12-15T00:46:47.966Z,1.20
2018-12-15T00:49:15.591Z,1.20
2018-12-15T00:51:43.122Z,1.10
2018-12-15T00:54:12.312Z,1.10
2018-12-15T00:56:39.843Z,1.20
2018-12-15T00:59:07.343Z,1.10
2018-12-15T01:01:34.876Z,1.20
2018-12-15T01:04:02.375Z,1.10
2018-12-15T01:06:29.894Z,1.20
2018-12-15T01:08:57.390Z,1.10
2018-12-15T01:11:24.914Z,1.10
2018-12-15T01:13:52.417Z,1.10
2018-12-15T01:16:19.979Z,1.10
2018-12-15T01:18:47.479Z,1.20
2018-12-15T01:21:14.980Z,1.10
2018-12-15T01:23:42.502Z,1.10
2018-12-15T01:26:10.003Z,1.10
2018-12-15T01:28:37.526Z,1.10
2018-12-15T01:31:05.167Z,1.10
2018-12-15T01:33:32.755Z,1.10
2018-12-15T01:36:00.255Z,1.10
2018-12-15T01:38:27.782Z,1.20
2018-12-15T01:40:55.280Z,1.20
2018-12-15T01:43:22.823Z,1.20
2018-12-15T01:45:50.314Z,1.20
2018-12-15T01:48:17.820Z,1.20
2018-12-15T01:50:45.428Z,1.20
2018-12-15T01:53:12.928Z,1.20
2018-12-15T01:55:40.455Z,1.10
2018-12-15T01:58:07.956Z,1.10
2018-12-15T02:00:35.485Z,1.10
2018-12-15T02:03:02.979Z,1.20
2018-12-15T02:05:30.507Z,1.20
2018-12-15T02:07:58.003Z,1.20
2018-12-15T02:10:25.536Z,1.20
2018-12-15T02:12:53.042Z,1.20
2018-12-15T02:15:20.568Z,1.20
2018-12-15T02:17:48.062Z,1.10
2018-12-15T02:20:15.588Z,1.10
2018-12-15T02:22:43.083Z,1.20
2018-12-15T02:25:10.627Z,1.10
2018-12-15T02:27:38.130Z,1.20
2018-12-15T02:30:06.591Z,1.20
2018-12-15T02:32:34.116Z,1.20
2018-12-15T02:35:02.505Z,1.20
2018-12-15T02:37:32.007Z,1.20
2018-12-15T02:39:59.507Z,1.20
2018-12-15T02:42:27.036Z,1.20
2018-12-15T02:44:54.539Z,1.20
2018-12-15T02:47:22.063Z,1.20
2018-12-15T02:49:49.565Z,1.20
2018-12-15T02:52:17.091Z,1.20
2018-12-15T02:54:44.605Z,1.20
2018-12-15T02:57:12.141Z,1.20
2018-12-15T02:59:39.807Z,1.20
2018-12-15T03:02:07.338Z,1.20
2018-12-15T03:04:34.842Z,1.20
2018-12-15T03:07:02.370Z,1.20
2018-12-15T03:09:29.878Z,1.20
2018-12-15T03:11:57.410Z,1.20
2018-12-15T03:14:24.914Z,1.10
2018-12-15T03:17:02.873Z,1.20
2018-12-15T03:19:30.375Z,1.20
2018-12-15T03:21:57.916Z,1.20
2018-12-15T03:24:25.420Z,1.20
2018-12-15T03:26:52.915Z,1.20
2018-12-15T03:29:20.447Z,1.20
2018-12-15T03:31:47.948Z,1.20
2018-12-15T03:34:15.481Z,1.20
2018-12-15T03:36:42.975Z,1.20
2018-12-15T03:39:10.500Z,1.20
2018-12-15T03:41:38.179Z,1.20
2018-12-15T03:44:05.723Z,1.20
2018-12-15T03:46:33.219Z,1.20
2018-12-15T03:49:00.761Z,1.20
2018-12-15T03:51:28.277Z,1.20
2018-12-15T03:53:55.811Z,1.30
2018-12-15T03:56:23.322Z,1.30
2018-12-15T03:58:50.864Z,1.20
2018-12-15T04:01:18.371Z,1.30
2018-12-15T04:03:45.908Z,1.30
2018-12-15T04:06:13.414Z,1.30
2018-12-15T04:08:40.949Z,1.30
2018-12-15T04:11:08.452Z,1.30
2018-12-15T04:13:35.997Z,1.30
2018-12-15T04:16:03.507Z,1.30
2018-12-15T04:18:31.025Z,1.30
2018-12-15T04:20:58.561Z,1.30
2018-12-15T04:23:26.070Z,1.30
2018-12-15T04:25:53.620Z,1.30
2018-12-15T04:28:21.119Z,1.30
2018-12-15T04:30:48.651Z,1.30
2018-12-15T04:33:16.159Z,1.30
2018-12-15T04:35:43.692Z,1.20
2018-12-15T04:38:11.197Z,1.20
2018-12-15T04:40:39.615Z,1.20
2018-12-15T04:43:07.201Z,1.20
2018-12-15T04:45:34.821Z,1.20
2018-12-15T04:48:02.327Z,1.20
2018-12-15T04:50:29.869Z,1.20
2018-12-15T04:52:57.372Z,1.20
2018-12-15T04:55:24.904Z,1.20
2018-12-15T04:57:52.417Z,1.20
2018-12-15T05:00:19.952Z,1.20
2018-12-15T05:02:47.457Z,1.20
2018-12-15T05:05:14.993Z,1.20
2018-12-15T05:07:42.588Z,1.20
2018-12-15T05:10:10.124Z,1.20
2018-12-15T05:12:37.632Z,1.20
2018-12-15T05:15:05.447Z,1.20
2018-12-15T05:17:32.963Z,1.20
2018-12-15T05:20:00.464Z,1.20
2018-12-15T05:22:28.013Z,1.20
2018-12-15T05:24:55.603Z,1.20
2018-12-15T05:27:23.423Z,1.10
2018-12-15T05:29:50.928Z,1.20
2018-12-15T05:32:18.464Z,1.20
2018-12-15T05:34:45.980Z,1.10
2018-12-15T05:37:13.517Z,1.10
2018-12-15T05:39:41.024Z,1.10
2018-12-15T05:42:08.556Z,1.10
2018-12-15T05:44:36.065Z,1.10
2018-12-15T05:47:03.597Z,1.10
2018-12-15T05:49:31.100Z,1.10
2018-12-15T05:51:58.632Z,1.10
2018-12-15T05:54:26.260Z,1.10
2018-12-15T05:56:53.789Z,1.10
2018-12-15T05:59:21.292Z,1.10
2018-12-15T06:01:48.827Z,1.10
2018-12-15T06:04:16.325Z,1.10
2018-12-15T06:06:43.825Z,1.10
2018-12-15T06:09:11.365Z,1.10
2018-12-15T06:11:38.872Z,1.10
2018-12-15T06:14:06.408Z,1.00
2018-12-15T06:16:33.916Z,1.00
2018-12-15T06:19:01.448Z,0.90
2018-12-15T06:21:28.959Z,0.90
2018-12-15T06:23:56.495Z,0.90
2018-12-15T06:26:24.000Z,1.00
2018-12-15T06:28:51.533Z,1.00
2018-12-15T06:31:19.040Z,0.90
2018-12-15T06:33:46.573Z,1.00
2018-12-15T06:36:14.082Z,1.00
2018-12-15T06:38:41.614Z,1.00
2018-12-15T06:41:09.125Z,1.10
2018-12-15T06:43:37.040Z,1.10
2018-12-15T06:46:04.830Z,1.10
2018-12-15T06:48:37.986Z,1.10
2018-12-15T06:51:01.900Z,1.10
2018-12-15T06:53:29.433Z,1.10
2018-12-15T06:55:56.944Z,1.00
2018-12-15T06:58:24.480Z,1.00
2018-12-15T07:00:51.989Z,1.00
2018-12-15T07:03:19.532Z,1.00
2018-12-15T07:05:47.036Z,1.00
2018-12-15T07:08:14.576Z,1.00
2018-12-15T07:10:42.109Z,1.00
2018-12-15T07:13:09.620Z,1.00
2018-12-15T07:15:37.163Z,1.10
2018-12-15T07:18:04.672Z,1.00
2018-12-15T07:20:32.213Z,1.00
2018-12-15T07:22:59.720Z,1.10
2018-12-15T07:25:27.261Z,1.10
2018-12-15T07:27:54.765Z,1.00
2018-12-15T07:30:22.564Z,1.00
2018-12-15T07:32:50.072Z,1.00
2018-12-15T07:35:17.609Z,1.00
2018-12-15T07:37:45.121Z,1.00
2018-12-15T07:40:12.664Z,1.00
2018-12-15T07:42:40.176Z,1.00
2018-12-15T07:45:07.792Z,1.00
2018-12-15T07:47:35.296Z,1.00
2018-12-15T07:50:03.296Z,1.00
2018-12-15T07:52:30.797Z,1.00
2018-12-15T07:54:58.307Z,1.00
2018-12-15T07:57:25.839Z,1.00
2018-12-15T07:59:53.352Z,1.00
2018-12-15T08:02:20.903Z,1.00
2018-12-15T08:04:48.408Z,1.00
2018-12-15T08:07:16.020Z,1.00
2018-12-15T08:09:43.704Z,1.00
2018-12-15T08:12:16.830Z,1.00
2018-12-15T08:14:44.339Z,1.10
2018-12-15T08:17:11.873Z,1.10
2018-12-15T08:19:39.376Z,1.10
2018-12-15T08:22:06.907Z,1.10
2018-12-15T08:24:34.408Z,1.10
2018-12-15T08:27:01.941Z,1.10
2018-12-15T08:29:29.444Z,1.10
2018-12-15T08:31:56.989Z,1.10
2018-12-15T08:34:24.495Z,1.10
2018-12-15T08:36:52.029Z,1.10
2018-12-15T08:39:19.568Z,1.10
2018-12-15T08:41:47.104Z,1.10
2018-12-15T08:44:14.684Z,1.10
2018-12-15T08:46:42.276Z,1.10
2018-12-15T08:49:09.788Z,1.10
2018-12-15T08:51:37.328Z,1.20
2018-12-15T08:54:04.833Z,1.20
2018-12-15T08:56:32.457Z,1.20
2018-12-15T08:58:59.960Z,1.20
2018-12-15T09:01:27.500Z,1.20
2018-12-15T09:03:55.004Z,1.30
2018-12-15T09:06:22.536Z,1.30
2018-12-15T09:08:50.035Z,1.30
2018-12-15T09:11:17.568Z,1.30
2018-12-15T09:13:45.071Z,1.40
2018-12-15T09:16:12.616Z,1.40
2018-12-15T09:18:40.119Z,1.40
2018-12-15T09:21:07.628Z,1.40
2018-12-15T09:23:35.160Z,1.40
2018-12-15T09:26:02.664Z,1.30
2018-12-15T09:28:30.196Z,1.30
2018-12-15T09:30:57.708Z,1.40
2018-12-15T09:33:25.244Z,1.40
2018-12-15T09:35:52.748Z,1.50
2018-12-15T09:38:20.283Z,1.40
2018-12-15T09:40:47.785Z,1.50
2018-12-15T09:43:15.324Z,1.50
2018-12-15T09:45:42.828Z,1.50
2018-12-15T09:48:10.367Z,1.50
2018-12-15T09:50:37.968Z,1.50
2018-12-15T09:53:05.499Z,1.50
2018-12-15T09:55:33.009Z,1.50
2018-12-15T09:58:00.545Z,1.50
2018-12-15T10:00:28.047Z,1.50
2018-12-15T10:02:55.583Z,1.50
2018-12-15T10:05:23.085Z,1.40
2018-12-15T10:07:50.636Z,1.50
2018-12-15T10:10:18.140Z,1.40
2018-12-15T10:12:45.644Z,1.50
2018-12-15T10:15:13.180Z,1.50
2018-12-15T10:17:40.689Z,1.40
2018-12-15T10:20:08.308Z,1.40
2018-12-15T10:22:35.812Z,1.50
2018-12-15T10:25:04.555Z,1.50
2018-12-15T10:27:32.080Z,1.50
2018-12-15T10:30:05.409Z,1.60
2018-12-15T10:32:38.551Z,1.60
2018-12-15T10:35:06.447Z,1.70
2018-12-15T10:37:33.950Z,1.70
2018-12-15T10:40:01.486Z,1.70
2018-12-15T10:42:28.996Z,1.70
2018-12-15T10:44:56.532Z,1.70
2018-12-15T10:47:24.035Z,1.70
2018-12-15T10:49:51.572Z,1.80
2018-12-15T10:52:19.081Z,1.80
2018-12-15T10:54:46.623Z,1.90
2018-12-15T10:57:14.132Z,1.90
2018-12-15T10:59:41.680Z,1.90
2018-12-15T11:02:10.015Z,1.90
2018-12-15T11:04:37.757Z,1.90
2018-12-15T11:07:05.339Z,1.80
2018-12-15T11:09:32.872Z,1.80
2018-12-15T11:12:00.843Z,1.80
2018-12-15T11:14:28.347Z,1.80
2018-12-15T11:16:55.883Z,1.70
2018-12-15T11:19:23.387Z,1.70
2018-12-15T11:21:50.920Z,1.70
2018-12-15T11:24:18.432Z,1.70
2018-12-15T11:26:45.982Z,1.70
2018-12-15T11:29:13.588Z,1.70
2018-12-15T11:31:41.120Z,1.70
2018-12-15T11:34:09.628Z,1.70
2018-12-15T11:36:37.164Z,1.60
2018-12-15T11:39:06.432Z,1.50
2018-12-15T11:41:33.972Z,1.50
2018-12-15T11:44:01.484Z,1.50
2018-12-15T11:46:29.028Z,1.50
2018-12-15T11:48:56.528Z,1.50
2018-12-15T11:51:24.063Z,1.50
2018-12-15T11:53:51.564Z,1.50
2018-12-15T11:56:19.104Z,1.40
2018-12-15T11:58:46.608Z,1.30
2018-12-15T12:01:14.109Z,1.20
2018-12-15T12:03:41.647Z,1.30
2018-12-15T12:06:09.144Z,1.30
2018-12-15T12:08:36.676Z,1.30
2018-12-15T12:11:04.252Z,1.40
2018-12-15T12:13:31.780Z,1.30
2018-12-15T12:15:59.281Z,1.30
2018-12-15T12:18:26.807Z,1.20
2018-12-15T12:20:54.308Z,1.20
2018-12-15T12:23:21.836Z,1.20
2018-12-15T12:25:49.423Z,1.20
2018-12-15T12:28:16.955Z,1.20
2018-12-15T12:30:44.452Z,1.20
2018-12-15T12:33:12.104Z,1.20
2018-12-15T12:35:39.603Z,1.20
2018-12-15T12:38:07.139Z,1.30
2018-12-15T12:40:34.644Z,1.30
2018-12-15T12:43:02.180Z,1.30
2018-12-15T12:45:29.680Z,1.30
2018-12-15T12:47:57.212Z,1.30
2018-12-15T12:50:24.711Z,1.30
2018-12-15T12:52:52.240Z,1.20
2018-12-15T12:55:19.744Z,1.30
2018-12-15T12:57:47.300Z,1.30
2018-12-15T13:00:14.879Z,1.30
2018-12-15T13:02:42.411Z,1.20
2018-12-15T13:05:09.912Z,1.30
2018-12-15T13:07:37.412Z,1.30
2018-12-15T13:10:05.310Z,1.30
2018-12-15T13:12:32.812Z,1.30
2018-12-15T13:15:00.346Z,1.30
2018-12-15T13:17:27.928Z,1.30
2018-12-15T13:19:55.508Z,1.30
2018-12-15T13:22:23.012Z,1.30
2018-12-15T13:24:50.548Z,1.30
2018-12-15T13:27:18.057Z,1.30
2018-12-15T13:29:45.748Z,1.30
2018-12-15T13:32:13.247Z,1.30
2018-12-15T13:34:40.783Z,1.20
2018-12-15T13:37:08.285Z,1.30
2018-12-15T13:39:35.820Z,1.30
2018-12-15T13:42:03.400Z,1.30
2018-12-15T13:44:30.931Z,1.40
2018-12-15T13:46:58.435Z,1.30
2018-12-15T13:49:25.967Z,1.30
2018-12-15T13:51:53.637Z,1.20
2018-12-15T13:54:21.168Z,1.20
2018-12-15T13:56:48.672Z,1.10
2018-12-15T13:59:16.206Z,1.10
2018-12-15T14:01:43.699Z,1.10
2018-12-15T14:04:11.232Z,1.10
2018-12-15T14:06:38.731Z,1.20
2018-12-15T14:09:06.724Z,1.20
2018-12-15T14:11:34.228Z,1.20
2018-12-15T14:14:01.854Z,1.20
2018-12-15T14:16:29.356Z,1.20
2018-12-15T14:18:56.856Z,1.20
2018-12-15T14:21:24.388Z,1.10
2018-12-15T14:23:52.067Z,1.10
2018-12-15T14:26:19.600Z,1.00
2018-12-15T14:28:47.107Z,1.00
2018-12-15T14:31:14.640Z,1.00
2018-12-15T14:33:42.144Z,0.90
2018-12-15T14:36:09.676Z,0.80
2018-12-15T14:38:37.177Z,0.80
2018-12-15T14:41:04.788Z,0.80
2018-12-15T14:43:32.287Z,0.80
2018-12-15T14:45:59.821Z,0.80
2018-12-15T14:48:27.325Z,0.70
2018-12-15T14:50:54.851Z,0.70
2018-12-15T14:53:22.356Z,0.70
2018-12-15T14:55:49.889Z,0.80
2018-12-15T14:58:17.392Z,0.80
2018-12-15T15:00:44.920Z,0.80
2018-12-15T15:03:12.420Z,0.80
2018-12-15T15:05:39.961Z,0.90
2018-12-15T15:08:07.464Z,0.90
2018-12-15T15:10:34.964Z,1.00
2018-12-15T15:13:02.496Z,1.00
2018-12-15T15:15:30.004Z,0.90
2018-12-15T15:17:57.536Z,0.90
2018-12-15T15:20:29.778Z,0.90
2018-12-15T15:22:54.592Z,0.90
2018-12-15T15:25:22.092Z,0.90
2018-12-15T15:27:49.620Z,0.80
2018-12-15T15:30:17.128Z,0.80
2018-12-15T15:32:45.932Z,0.80
2018-12-15T15:35:13.665Z,0.80
2018-12-15T15:37:41.199Z,0.70
2018-12-15T15:40:08.859Z,0.80
2018-12-15T15:42:36.393Z,0.70
2018-12-15T15:45:04.664Z,0.70
2018-12-15T15:47:32.200Z,0.60
2018-12-15T15:49:59.701Z,0.60
2018-12-15T15:52:27.244Z,0.60
2018-12-15T15:54:54.748Z,0.60
2018-12-15T15:57:22.253Z,0.60
2018-12-15T15:59:49.784Z,0.60
2018-12-15T16:02:17.369Z,0.60
2018-12-15T16:04:44.900Z,0.60
2018-12-15T16:07:12.401Z,0.60
2018-12-15T16:09:44.862Z,0.60
2018-12-15T16:12:09.462Z,0.60
2018-12-15T16:14:36.999Z,0.60
2018-12-15T16:17:04.588Z,0.60
2018-12-15T16:19:32.120Z,0.60
2018-12-15T16:21:59.616Z,0.60
2018-12-15T16:24:27.148Z,0.60
2018-12-15T16:26:54.653Z,0.50
2018-12-15T16:29:22.185Z,0.50
2018-12-15T16:31:49.684Z,0.60
2018-12-15T16:34:17.216Z,0.50
2018-12-15T16:36:44.722Z,0.50
2018-12-15T16:39:12.260Z,0.50
2018-12-15T16:41:42.360Z,0.40
2018-12-15T16:44:09.285Z,0.40
2018-12-15T16:46:36.816Z,0.40
2018-12-15T16:49:05.970Z,0.40
2018-12-15T16:51:33.777Z,0.40
2018-12-15T16:54:01.280Z,0.40
2018-12-15T16:56:28.811Z,0.30
2018-12-15T16:58:56.314Z,0.30
2018-12-15T17:01:23.849Z,0.30
2018-12-15T17:03:51.352Z,0.20
2018-12-15T17:06:18.883Z,0.20
2018-12-15T17:08:46.388Z,0.20
2018-12-15T17:11:13.916Z,0.20
2018-12-15T17:13:41.415Z,0.10
2018-12-15T17:16:08.956Z,0.10
2018-12-15T17:18:36.456Z,0.10
2018-12-15T17:21:05.052Z,0.10
2018-12-15T17:23:32.555Z,0.10
2018-12-15T17:26:00.088Z,0.00
2018-12-15T17:28:27.591Z,-0.10
2018-12-15T17:30:55.132Z,-0.10
2018-12-15T17:33:22.640Z,-0.10
2018-12-15T17:35:50.143Z,-0.10
2018-12-15T17:38:17.679Z,-0.10
2018-12-15T17:40:45.184Z,-0.20
2018-12-15T17:43:12.719Z,-0.20
2018-12-15T17:45:40.224Z,-0.20
2018-12-15T17:48:07.755Z,-0.20
2018-12-15T17:50:35.268Z,-0.20
2018-12-15T17:53:02.804Z,-0.10
2018-12-15T17:55:30.313Z,-0.20
2018-12-15T17:57:57.847Z,-0.20
2018-12-15T18:00:25.356Z,-0.20
2018-12-15T18:02:52.978Z,-0.20
2018-12-15T18:05:20.492Z,-0.20
2018-12-15T18:07:48.048Z,-0.20
2018-12-15T18:10:15.640Z,-0.20
2018-12-15T18:12:43.180Z,-0.20
2018-12-15T18:15:10.689Z,-0.20
2018-12-15T18:17:38.232Z,-0.20
2018-12-15T18:20:07.399Z,-0.20
2018-12-15T18:22:34.939Z,-0.20
2018-12-15T18:25:02.444Z,-0.20
2018-12-15T18:27:29.985Z,-0.20
2018-12-15T18:29:57.586Z,-0.20
2018-12-15T18:32:25.128Z,-0.30
2018-12-15T18:34:52.644Z,-0.30
2018-12-15T18:37:20.182Z,-0.20
2018-12-15T18:39:47.687Z,-0.20
2018-12-15T18:42:15.238Z,-0.20
2018-12-15T18:44:42.750Z,-0.20
2018-12-15T18:47:10.258Z,-0.20
2018-12-15T18:49:37.801Z,-0.30
2018-12-15T18:52:05.312Z,-0.30
2018-12-15T18:54:32.931Z,-0.30
2018-12-15T18:57:00.720Z,-0.30
2018-12-15T18:59:28.536Z,-0.30
2018-12-15T19:01:56.040Z,-0.30
2018-12-15T19:04:23.576Z,-0.30
2018-12-15T19:06:51.082Z,-0.30
2018-12-15T19:09:18.622Z,-0.40
2018-12-15T19:11:46.128Z,-0.30
2018-12-15T19:14:13.676Z,-0.30
2018-12-15T19:16:41.188Z,-0.30
2018-12-15T19:19:08.695Z,-0.30
2018-12-15T19:21:36.243Z,-0.30
2018-12-15T19:24:03.911Z,-0.30
2018-12-15T19:26:31.451Z,-0.30
2018-12-15T19:28:59.096Z,-0.30
2018-12-15T19:31:26.638Z,-0.30
2018-12-15T19:33:54.152Z,-0.30
2018-12-15T19:36:21.687Z,-0.30
2018-12-15T19:38:49.200Z,-0.20
2018-12-15T19:41:16.741Z,-0.30
2018-12-15T19:43:44.251Z,-0.30
2018-12-15T19:46:11.788Z,-0.30
2018-12-15T19:48:39.291Z,-0.30
2018-12-15T19:51:06.832Z,-0.30
2018-12-15T19:53:34.348Z,-0.30
2018-12-15T19:56:01.885Z,-0.30
2018-12-15T19:58:29.391Z,-0.30
2018-12-15T20:00:56.928Z,-0.30
2018-12-15T20:03:24.440Z,-0.30
2018-12-15T20:05:51.980Z,-0.30
2018-12-15T20:08:19.484Z,-0.40
2018-12-15T20:10:47.025Z,-0.40
2018-12-15T20:13:14.532Z,-0.40
2018-12-15T20:15:42.078Z,-0.40
2018-12-15T20:18:09.595Z,-0.50
2018-12-15T20:20:37.135Z,-0.40
2018-12-15T20:23:04.644Z,-0.50
2018-12-15T20:25:32.190Z,-0.50
2018-12-15T20:27:59.711Z,-0.50
2018-12-15T20:30:27.244Z,-0.50
2018-12-15T20:32:54.755Z,-0.50
2018-12-15T20:35:22.296Z,-0.60
2018-12-15T20:37:49.808Z,-0.60
2018-12-15T20:40:17.344Z,-0.60
2018-12-15T20:42:44.848Z,-0.70
2018-12-15T20:45:12.468Z,-0.60
2018-12-15T20:47:39.980Z,-0.60
2018-12-15T20:50:07.681Z,-0.60
2018-12-15T20:52:35.190Z,-0.60
2018-12-15T20:55:02.813Z,-0.60
2018-12-15T20:57:30.319Z,-0.60
2018-12-15T20:59:57.825Z,-0.60
2018-12-15T21:02:25.364Z,-0.60
2018-12-15T21:04:52.872Z,-0.60
2018-12-15T21:07:20.412Z,-0.60
2018-12-15T21:09:47.915Z,-0.60
2018-12-15T21:12:15.460Z,-0.50
2018-12-15T21:14:42.972Z,-0.50
2018-12-15T21:17:10.503Z,-0.50
2018-12-15T21:19:38.008Z,-0.50
2018-12-15T21:22:09.204Z,-0.60
2018-12-15T21:24:36.717Z,-0.50
2018-12-15T21:27:05.417Z,-0.50
2018-12-15T21:29:32.920Z,-0.50
2018-12-15T21:32:00.456Z,-0.50
2018-12-15T21:34:27.964Z,-0.50
2018-12-15T21:36:55.513Z,-0.50
2018-12-15T21:39:23.020Z,-0.50
2018-12-15T21:41:50.560Z,-0.50
2018-12-15T21:44:18.069Z,-0.50
2018-12-15T21:46:45.608Z,-0.50
2018-12-15T21:49:13.120Z,-0.40
2018-12-15T21:51:40.656Z,-0.40
2018-12-15T21:54:08.160Z,-0.40
2018-12-15T21:56:35.700Z,-0.40
2018-12-15T21:59:03.215Z,-0.40
2018-12-15T22:01:30.760Z,-0.40
2018-12-15T22:03:58.276Z,-0.50
2018-12-15T22:06:25.822Z,-0.50
2018-12-15T22:08:53.327Z,-0.60
2018-12-15T22:11:20.868Z,-0.60
2018-12-15T22:13:48.380Z,-0.60
2018-12-15T22:16:15.919Z,-0.70
2018-12-15T22:18:43.427Z,-0.70
2018-12-15T22:21:10.959Z,-0.80
2018-12-15T22:23:38.471Z,-0.80
2018-12-15T22:26:06.028Z,-0.80
2018-12-15T22:28:33.656Z,-0.90
2018-12-15T22:31:01.164Z,-0.80
2018-12-15T22:33:28.700Z,-0.90
2018-12-15T22:35:56.204Z,-0.90
2018-12-15T22:38:23.744Z,-0.90
2018-12-15T22:40:51.252Z,-0.90
2018-12-15T22:43:18.788Z,-0.90
2018-12-15T22:45:46.299Z,-1.00
2018-12-15T22:48:13.852Z,-1.10
2018-12-15T22:50:41.358Z,-1.10
2018-12-15T22:53:08.904Z,-1.10
2018-12-15T22:55:36.411Z,-1.10
2018-12-15T22:58:03.948Z,-1.10
2018-12-15T23:00:33.525Z,-1.10
2018-12-15T23:03:01.063Z,-1.20
2018-12-15T23:05:28.576Z,-1.20
2018-12-15T23:07:56.119Z,-1.10
2018-12-15T23:10:23.636Z,-1.20
2018-12-15T23:12:51.176Z,-1.20
2018-12-15T23:15:18.692Z,-1.20
2018-12-15T23:17:46.237Z,-1.20
2018-12-15T23:20:13.864Z,-1.20
2018-12-15T23:22:41.372Z,-1.20
2018-12-15T23:25:08.906Z,-1.20
2018-12-15T23:27:36.417Z,-1.30
2018-12-15T23:30:05.824Z,-1.30
2018-12-15T23:32:33.817Z,-1.30
2018-12-15T23:35:01.357Z,-1.30
2018-12-15T23:37:28.868Z,-1.30
2018-12-15T23:39:56.407Z,-1.30
2018-12-15T23:42:23.916Z,-1.30
2018-12-15T23:44:51.451Z,-1.30
2018-12-15T23:47:19.080Z,-1.40
2018-12-15T23:49:46.620Z,-1.40
2018-12-15T23:52:14.129Z,-1.40
2018-12-15T23:54:41.667Z,-1.40
2018-12-15T23:57:09.179Z,-1.50
2018-12-15T23:59:36.720Z,-1.40
